Time;durP1;ratioP1;P1;durP2;ratioP2;P2;SDS_P1;SDS_P2;PMS_P1;PMS_P2;Temp;Humidity;BMP_temperature;BMP_pressure;BME280_temperature;BME280_humidity;BME280_pressure;Samples;Min_cycle;Max_cycle;Signal;HPM_P1;HPM_P2
2023/03/15 00:01:26;;;;;;;;;;;;;;;26.31;38.41;93772.59;4970604;28;7045;-62
2023/03/15 00:03:54;;;;;;;;;;;;;;;26.30;38.61;93787.63;4963170;28;8859;-61
2023/03/15 00:06:24;;;;;;;;;;;;;;;26.27;38.75;93793.47;4993263;28;7069;-61
2023/03/15 00:08:56;;;;;;;;;;;;;;;26.27;38.67;93779.69;4972777;28;9258;-62
2023/03/15 00:11:34;;;;;;;;;;;;;;;26.26;39.36;93789.22;4965827;28;9512;-62
2023/03/15 00:14:10;;;;;;;;;;;;;;;26.27;38.30;93793.47;4996491;28;8781;-62
2023/03/15 00:16:37;;;;;;;;;;;;;;;26.25;38.94;93794.03;4969492;28;9093;-62
2023/03/15 00:19:05;;;;;;;;;;;;;;;26.25;39.20;93796.78;4955540;28;6955;-62
2023/03/15 00:21:34;;;;;;;;;;;;;;;26.24;38.55;93802.78;4972307;28;9037;-62
2023/03/15 00:24:00;;;;;;;;;;;;;;;26.25;38.93;93801.53;4978568;28;8983;-62
2023/03/15 00:26:28;;;;;;;;;;;;;;;26.27;38.75;93812.78;4967253;28;9648;-62
2023/03/15 00:28:54;;;;;;;;;;;;;;;26.22;38.93;93808.09;4988381;28;7250;-62
2023/03/15 00:31:24;;;;;;;;;;;;;;;26.29;39.26;93824.00;4962427;28;7054;-62
2023/03/15 00:33:54;;;;;;;;;;;;;;;26.28;38.31;93823.25;4969731;28;7098;-62
2023/03/15 00:36:22;;;;;;;;;;;;;;;26.29;38.76;93824.00;4985585;28;6926;-62
2023/03/15 00:38:50;;;;;;;;;;;;;;;26.26;38.31;93836.84;4969990;28;7056;-61
2023/03/15 00:41:19;;;;;;;;;;;;;;;26.25;39.12;93824.34;4975415;28;9153;-62
2023/03/15 00:43:46;;;;;;;;;;;;;;;26.23;38.17;93824.09;4962656;28;7053;-62
2023/03/15 00:46:13;;;;;;;;;;;;;;;26.25;38.63;93835.38;4974504;28;8762;-62
2023/03/15 00:48:40;;;;;;;;;;;;;;;26.24;38.66;93838.63;4971659;28;9077;-61
2023/03/15 00:51:13;;;;;;;;;;;;;;;26.26;39.18;93842.34;4970153;28;7393;-62
2023/03/15 00:53:43;;;;;;;;;;;;;;;26.26;38.77;93855.38;4988390;28;7646;-62
2023/03/15 00:56:19;;;;;;;;;;;;;;;26.26;38.47;93852.63;4972627;28;9430;-61
2023/03/15 00:59:17;;;;;;;;;;;;;;;26.22;38.63;93858.47;4963885;28;7310;-62
2023/03/15 01:02:15;;;;;;;;;;;;;;;26.19;39.12;93876.06;4990792;28;7028;-62
2023/03/15 01:04:41;;;;;;;;;;;;;;;26.21;39.33;93878.31;4915688;29;7756;-61
2023/03/15 01:07:16;;;;;;;;;;;;;;;26.19;38.69;93867.06;4936329;29;6842;-62
2023/03/15 01:09:56;;;;;;;;;;;;;;;26.24;38.38;93888.25;4921042;29;7282;-61
2023/03/15 01:12:24;;;;;;;;;;;;;;;26.21;39.02;93889.31;4914393;29;9149;-61
2023/03/15 01:14:52;;;;;;;;;;;;;;;26.23;38.66;93892.28;4917386;29;7294;-62
2023/03/15 01:17:28;;;;;;;;;;;;;;;26.21;38.55;93900.34;4918941;29;9323;-62
2023/03/15 01:20:19;;;;;;;;;;;;;;;26.21;38.32;93900.34;4921410;29;8970;-62
2023/03/15 01:22:47;;;;;;;;;;;;;;;26.21;38.31;93905.88;4940006;29;9039;-62
2023/03/15 01:25:13;;;;;;;;;;;;;;;26.16;38.98;93899.16;4914684;29;9421;-62
2023/03/15 01:27:47;;;;;;;;;;;;;;;26.10;39.38;93904.75;4907995;29;7294;-62
2023/03/15 01:30:18;;;;;;;;;;;;;;;26.15;38.90;93909.44;4916362;29;9369;-62
2023/03/15 01:32:55;;;;;;;;;;;;;;;26.14;38.68;93909.97;4939421;29;7104;-61
2023/03/15 01:35:34;;;;;;;;;;;;;;;26.13;39.17;93900.22;4923345;29;7257;-61
2023/03/15 01:38:09;;;;;;;;;;;;;;;26.08;39.17;93910.06;4902255;29;9027;-61
2023/03/15 01:40:41;;;;;;;;;;;;;;;26.07;39.08;93922.34;4944591;28;9659;-62
2023/03/15 01:43:15;;;;;;;;;;;;;;;26.08;39.34;93923.84;4986814;28;9423;-61
2023/03/15 01:46:18;;;;;;;;;;;;;;;26.10;38.89;93929.56;4971410;28;9266;-61
2023/03/15 01:49:07;;;;;;;;;;;;;;;26.09;39.03;93919.81;4987559;28;8949;-62
2023/03/15 01:51:53;;;;;;;;;;;;;;;26.07;38.76;93922.34;4972017;28;7375;-63
2023/03/15 01:54:35;;;;;;;;;;;;;;;26.07;38.40;93929.84;4975336;28;7237;-62
2023/03/15 01:57:08;;;;;;;;;;;;;;;26.07;38.64;93930.59;4969990;28;7038;-61
2023/03/15 01:59:45;;;;;;;;;;;;;;;26.10;39.08;93937.09;4965566;28;9033;-62
2023/03/15 02:02:13;;;;;;;;;;;;;;;26.11;38.52;93947.59;4989752;28;9055;-62
2023/03/15 02:04:58;;;;;;;;;;;;;;;26.09;39.28;93950.16;4999441;28;7308;-61
2023/03/15 02:07:36;;;;;;;;;;;;;;;26.09;39.43;93960.41;4982931;28;9057;-62
2023/03/15 02:10:14;;;;;;;;;;;;;;;26.10;38.43;93959.88;4974726;28;8220;-62
2023/03/15 02:12:45;;;;;;;;;;;;;;;26.09;39.14;93965.94;4975221;28;6979;-61
2023/03/15 02:15:12;;;;;;;;;;;;;;;26.05;38.48;93966.22;4969827;28;7269;-62
2023/03/15 02:17:42;;;;;;;;;;;;;;;26.06;38.57;93967.69;4968642;28;7647;-62
2023/03/15 02:20:30;;;;;;;;;;;;;;;26.03;38.52;93965.97;4971639;28;9011;-61
2023/03/15 02:23:20;;;;;;;;;;;;;;;25.99;39.48;93962.78;4974048;28;7109;-61
2023/03/15 02:26:17;;;;;;;;;;;;;;;26.00;38.57;93969.03;4984294;28;7299;-61
2023/03/15 02:28:54;;;;;;;;;;;;;;;26.04;39.45;93970.22;4980581;28;9911;-61
2023/03/15 02:31:22;;;;;;;;;;;;;;;26.05;39.37;93973.72;4973250;28;9047;-61
2023/03/15 02:34:24;;;;;;;;;;;;;;;26.01;38.70;93978.81;4964356;28;8780;-62
2023/03/15 02:37:05;;;;;;;;;;;;;;;26.04;38.84;93992.28;4938175;28;8753;-61
2023/03/15 02:39:32;;;;;;;;;;;;;;;26.04;39.24;93986.00;4938699;28;9032;-61
2023/03/15 02:42:30;;;;;;;;;;;;;;;26.05;39.04;93993.03;4939361;28;8966;-61
2023/03/15 02:44:57;;;;;;;;;;;;;;;26.00;39.41;93994.59;4894782;29;9173;-62
2023/03/15 02:47:34;;;;;;;;;;;;;;;25.98;39.28;93991.63;4879079;29;8799;-62
2023/03/15 02:50:45;;;;;;;;;;;;;;;26.03;39.30;94001.06;4889348;29;7099;-62
2023/03/15 02:53:23;;;;;;;;;;;;;;;26.00;39.20;93997.34;4857336;29;7992;-62
2023/03/15 02:55:50;;;;;;;;;;;;;;;26.02;39.46;94010.59;4842804;29;7002;-62
2023/03/15 02:58:18;;;;;;;;;;;;;;;26.00;39.43;94007.63;4841931;29;6920;-61
2023/03/15 03:00:44;;;;;;;;;;;;;;;25.95;38.87;94011.94;4839613;29;7116;-62
2023/03/15 03:03:14;;;;;;;;;;;;;;;25.92;38.76;94013.00;4854877;29;7919;-62
2023/03/15 03:05:42;;;;;;;;;;;;;;;25.95;38.82;94014.69;4841990;29;7077;-61
2023/03/15 03:08:08;;;;;;;;;;;;;;;25.97;38.75;94017.66;4862271;29;9924;-62
2023/03/15 03:10:35;;;;;;;;;;;;;;;25.95;39.59;94028.47;4859185;29;7173;-61
2023/03/15 03:13:13;;;;;;;;;;;;;;;25.95;39.31;94027.72;4861254;29;9140;-62
2023/03/15 03:15:44;;;;;;;;;;;;;;;25.97;39.33;94030.69;4859482;29;7282;-61
2023/03/15 03:18:35;;;;;;;;;;;;;;;25.99;39.51;94036.47;4844441;29;7302;-61
2023/03/15 03:21:09;;;;;;;;;;;;;;;25.95;39.38;94039.50;4857941;29;7039;-62
2023/03/15 03:24:14;;;;;;;;;;;;;;;25.94;39.25;94032.50;4873980;29;7283;-63
2023/03/15 03:26:58;;;;;;;;;;;;;;;25.93;39.64;94041.28;4881345;29;9145;-62
2023/03/15 03:29:32;;;;;;;;;;;;;;;25.90;39.64;94048.56;4902813;28;7285;-63
2023/03/15 03:32:06;;;;;;;;;;;;;;;25.91;38.98;94063.84;4968540;28;7476;-63
2023/03/15 03:35:02;;;;;;;;;;;;;;;25.92;39.13;94057.09;4975220;28;7272;-62
2023/03/15 03:37:32;;;;;;;;;;;;;;;25.91;39.44;94060.34;4938542;28;7175;-62
2023/03/15 03:40:27;;;;;;;;;;;;;;;25.89;39.69;94066.38;4923602;28;9195;-62
2023/03/15 03:43:09;;;;;;;;;;;;;;;25.89;38.86;94069.13;4915900;29;9029;-61
2023/03/15 03:45:45;;;;;;;;;;;;;;;25.88;39.08;94072.44;4899607;29;9418;-62
2023/03/15 03:48:11;;;;;;;;;;;;;;;25.85;39.84;94073.44;4907418;29;9339;-61
2023/03/15 03:50:46;;;;;;;;;;;;;;;25.87;38.84;94079.94;4903216;29;7128;-61
2023/03/15 03:53:45;;;;;;;;;;;;;;;25.88;39.15;94078.66;4915686;29;9185;-61
2023/03/15 03:56:11;;;;;;;;;;;;;;;25.87;39.78;94084.69;4848023;29;9446;-61
2023/03/15 03:58:40;;;;;;;;;;;;;;;25.84;39.54;94083.72;4798769;29;9815;-62
2023/03/15 04:01:08;;;;;;;;;;;;;;;25.84;39.49;94082.97;4814083;29;9096;-61
2023/03/15 04:03:48;;;;;;;;;;;;;;;25.85;39.47;94092.75;4804115;29;9495;-62
2023/03/15 04:06:24;;;;;;;;;;;;;;;25.81;39.52;94087.53;4807912;29;8910;-61
2023/03/15 04:08:51;;;;;;;;;;;;;;;25.81;39.11;94093.03;4821424;29;7264;-61
2023/03/15 04:11:35;;;;;;;;;;;;;;;25.80;39.71;94090.78;4811053;29;9058;-62
2023/03/15 04:14:13;;;;;;;;;;;;;;;25.81;39.91;94086.78;4827012;29;7232;-62
2023/03/15 04:16:40;;;;;;;;;;;;;;;25.81;39.18;94089.53;4856512;29;8962;-62
2023/03/15 04:19:06;;;;;;;;;;;;;;;25.81;39.61;94098.56;4883486;29;9042;-62
2023/03/15 04:21:33;;;;;;;;;;;;;;;25.83;39.57;94098.78;4894311;29;9143;-61
2023/03/15 04:24:01;;;;;;;;;;;;;;;25.83;39.78;94098.03;4912525;29;7477;-61
2023/03/15 04:26:28;;;;;;;;;;;;;;;25.85;39.55;94104.50;4875831;29;7059;-62
2023/03/15 04:28:58;;;;;;;;;;;;;;;25.85;39.84;94104.50;4907716;29;9114;-62
2023/03/15 04:31:27;;;;;;;;;;;;;;;25.84;39.04;94114.03;4912852;28;9066;-62
2023/03/15 04:33:54;;;;;;;;;;;;;;;25.85;39.09;94118.28;4983390;28;7272;-62
2023/03/15 04:36:21;;;;;;;;;;;;;;;25.84;39.11;94127.06;4964543;28;7029;-63
2023/03/15 04:38:48;;;;;;;;;;;;;;;25.83;39.26;94126.31;4955664;28;7395;-62
2023/03/15 04:41:16;;;;;;;;;;;;;;;25.82;39.28;94127.56;4984121;28;7230;-62
2023/03/15 04:43:43;;;;;;;;;;;;;;;25.77;39.08;94122.16;4971475;28;7754;-62
2023/03/15 04:46:10;;;;;;;;;;;;;;;25.80;39.11;94132.09;4957583;28;7260;-63
2023/03/15 04:48:36;;;;;;;;;;;;;;;25.82;38.95;94130.34;4969691;28;7338;-62
2023/03/15 04:51:02;;;;;;;;;;;;;;;25.81;39.14;94144.63;4966890;28;7610;-62
2023/03/15 04:53:28;;;;;;;;;;;;;;;25.80;39.95;94149.41;4963612;28;7128;-62
2023/03/15 04:55:54;;;;;;;;;;;;;;;25.82;39.03;94143.34;4983541;28;9221;-62
2023/03/15 04:58:22;;;;;;;;;;;;;;;25.81;38.97;94141.88;4954245;28;8751;-62
2023/03/15 05:00:48;;;;;;;;;;;;;;;25.81;39.67;94139.88;4965045;28;9084;-61
2023/03/15 05:03:16;;;;;;;;;;;;;;;25.82;39.86;94148.88;4965716;28;9402;-61
2023/03/15 05:05:44;;;;;;;;;;;;;;;25.79;40.00;94147.91;4997312;28;7293;-62
2023/03/15 05:08:10;;;;;;;;;;;;;;;25.80;39.63;94154.91;4951537;28;9255;-62
2023/03/15 05:10:36;;;;;;;;;;;;;;;25.80;39.26;94154.91;4962197;28;7266;-61
2023/03/15 05:13:02;;;;;;;;;;;;;;;25.79;39.97;94158.19;4980470;28;7030;-62
2023/03/15 05:15:31;;;;;;;;;;;;;;;25.79;39.89;94158.19;4962447;28;7293;-62
2023/03/15 05:18:15;;;;;;;;;;;;;;;25.79;39.21;94163.69;4972430;28;7273;-62
2023/03/15 05:20:41;;;;;;;;;;;;;;;25.77;39.16;94169.72;4976962;28;6997;-62
2023/03/15 05:23:13;;;;;;;;;;;;;;;25.74;39.51;94168.00;4968347;28;7340;-61
2023/03/15 05:25:42;;;;;;;;;;;;;;;25.75;39.66;94171.50;4986365;28;7066;-62
2023/03/15 05:28:08;;;;;;;;;;;;;;;25.76;39.73;94175.75;4966802;28;7249;-62
2023/03/15 05:30:41;;;;;;;;;;;;;;;25.76;39.70;94170.22;4977356;28;9124;-62
2023/03/15 05:33:08;;;;;;;;;;;;;;;25.78;39.36;94178.72;4965769;28;9587;-62
2023/03/15 05:35:34;;;;;;;;;;;;;;;25.77;39.39;94182.75;4998809;28;7244;-62
2023/03/15 05:38:07;;;;;;;;;;;;;;;25.76;39.08;94182.00;4976620;28;7105;-62
2023/03/15 05:40:43;;;;;;;;;;;;;;;25.76;39.81;94187.50;4971918;28;9400;-62
2023/03/15 05:43:10;;;;;;;;;;;;;;;25.76;39.47;94182.00;4980250;28;9307;-61
2023/03/15 05:45:43;;;;;;;;;;;;;;;25.76;39.26;94182.00;4977881;28;9098;-62
2023/03/15 05:48:16;;;;;;;;;;;;;;;25.77;39.70;94197.28;4980598;28;8718;-62
2023/03/15 05:50:42;;;;;;;;;;;;;;;25.77;39.93;94194.53;4971070;28;7309;-62
2023/03/15 05:53:09;;;;;;;;;;;;;;;25.77;39.14;94204.78;4969258;28;7183;-62
2023/03/15 05:55:38;;;;;;;;;;;;;;;25.82;38.95;94201.97;4968027;28;7102;-61
2023/03/15 05:58:05;;;;;;;;;;;;;;;25.84;39.50;94204.94;4985428;28;7435;-62
2023/03/15 06:00:35;;;;;;;;;;;;;;;25.83;39.38;94208.97;4973350;28;9220;-61
2023/03/15 06:03:05;;;;;;;;;;;;;;;25.81;39.45;94208.00;5005187;28;8263;-62
2023/03/15 06:05:31;;;;;;;;;;;;;;;25.80;40.09;94207.25;4970118;28;7537;-62
2023/03/15 06:08:00;;;;;;;;;;;;;;;25.81;40.21;94217.03;4961023;28;7901;-61
2023/03/15 06:10:28;;;;;;;;;;;;;;;25.79;39.29;94207.78;4964426;28;9349;-61
2023/03/15 06:13:01;;;;;;;;;;;;;;;25.75;40.10;94202.53;4980922;28;9272;-61
2023/03/15 06:15:39;;;;;;;;;;;;;;;25.76;39.11;94217.06;4965673;28;8448;-61
2023/03/15 06:18:08;;;;;;;;;;;;;;;25.76;39.53;94217.81;4971290;28;7327;-61
2023/03/15 06:20:43;;;;;;;;;;;;;;;25.76;39.57;94209.53;4987872;28;7515;-62
2023/03/15 06:23:12;;;;;;;;;;;;;;;25.80;39.71;94214.75;4973364;28;8743;-61
2023/03/15 06:26:02;;;;;;;;;;;;;;;25.80;40.19;94221.03;4972135;28;6939;-61
2023/03/15 06:28:45;;;;;;;;;;;;;;;25.87;39.59;94214.19;4970046;28;9305;-61
2023/03/15 06:31:13;;;;;;;;;;;;;;;25.91;39.34;94218.16;4988180;28;7279;-60
2023/03/15 06:33:39;;;;;;;;;;;;;;;25.97;38.79;94216.09;4965818;28;7291;-61
2023/03/15 06:36:09;;;;;;;;;;;;;;;26.06;39.52;94220.50;4970163;28;7036;-61
2023/03/15 06:38:53;;;;;;;;;;;;;;;26.09;38.43;94219.50;4980776;28;7455;-61
2023/03/15 06:41:28;;;;;;;;;;;;;;;26.09;39.14;94223.00;4984630;28;9026;-61
2023/03/15 06:44:08;;;;;;;;;;;;;;;26.11;38.88;94223.25;4961903;28;9358;-60
2023/03/15 06:47:10;;;;;;;;;;;;;;;26.03;39.21;94233.31;4967849;28;9351;-62
2023/03/15 06:49:36;;;;;;;;;;;;;;;26.00;39.02;94239.13;4963154;28;7114;-62
2023/03/15 06:52:08;;;;;;;;;;;;;;;25.94;39.28;94230.91;4947562;28;8793;-62
2023/03/15 06:54:45;;;;;;;;;;;;;;;25.91;38.93;94236.69;4969124;28;9162;-62
2023/03/15 06:57:27;;;;;;;;;;;;;;;25.96;38.79;94239.41;4942610;28;7106;-63
2023/03/15 06:59:53;;;;;;;;;;;;;;;26.00;38.88;94244.63;4965942;28;8239;-62
2023/03/15 07:02:35;;;;;;;;;;;;;;;26.01;38.43;94241.34;4966151;28;9119;-62
2023/03/15 07:05:21;;;;;;;;;;;;;;;26.01;39.13;94248.88;4950430;28;9102;-62
2023/03/15 07:07:48;;;;;;;;;;;;;;;25.97;38.47;94245.66;4961759;28;7389;-62
2023/03/15 07:10:25;;;;;;;;;;;;;;;25.95;38.70;94254.44;4947327;28;8927;-61
2023/03/15 07:13:12;;;;;;;;;;;;;;;25.98;39.68;94249.91;4961943;28;9223;-62
2023/03/15 07:15:55;;;;;;;;;;;;;;;25.95;39.49;94248.16;4958705;28;9307;-62
2023/03/15 07:18:25;;;;;;;;;;;;;;;25.94;39.02;94247.44;4953925;28;9339;-62
2023/03/15 07:21:01;;;;;;;;;;;;;;;25.93;39.71;94256.97;4955709;28;7545;-61
2023/03/15 07:23:32;;;;;;;;;;;;;;;25.92;40.27;94246.47;4962814;28;9421;-61
2023/03/15 07:26:01;;;;;;;;;;;;;;;25.89;39.87;94261.28;4974945;28;7187;-61
2023/03/15 07:28:43;;;;;;;;;;;;;;;25.90;40.16;94263.50;4988938;28;7330;-61
2023/03/15 07:31:16;;;;;;;;;;;;;;;25.91;39.92;94265.00;4974479;28;7004;-61
2023/03/15 07:33:45;;;;;;;;;;;;;;;25.93;39.91;94272.75;4971590;28;7410;-62
2023/03/15 07:36:13;;;;;;;;;;;;;;;25.93;39.24;94267.22;4971935;28;9132;-61
2023/03/15 07:38:49;;;;;;;;;;;;;;;25.93;39.30;94270.75;4989659;28;7224;-62
2023/03/15 07:41:34;;;;;;;;;;;;;;;25.93;39.75;94270.00;4973275;28;7115;-61
2023/03/15 07:44:11;;;;;;;;;;;;;;;25.93;39.53;94279.00;4971250;28;7434;-61
2023/03/15 07:47:03;;;;;;;;;;;;;;;25.94;40.06;94269.50;4978575;28;7235;-61
2023/03/15 07:49:40;;;;;;;;;;;;;;;25.97;39.76;94273.97;5007527;28;8744;-61
2023/03/15 07:52:07;;;;;;;;;;;;;;;25.96;39.25;94280.75;4976692;28;8810;-61
2023/03/15 07:54:40;;;;;;;;;;;;;;;25.97;39.64;94275.97;4975637;28;9067;-60
2023/03/15 07:57:06;;;;;;;;;;;;;;;25.97;39.61;94276.72;4992479;28;9421;-61
2023/03/15 07:59:36;;;;;;;;;;;;;;;25.99;39.86;94284.50;4991565;28;7232;-62
2023/03/15 08:02:30;;;;;;;;;;;;;;;26.00;39.30;94277.69;4968080;28;7455;-61
2023/03/15 08:05:06;;;;;;;;;;;;;;;26.04;42.24;94278.16;4978674;28;7698;-61
2023/03/15 08:07:34;;;;;;;;;;;;;;;26.10;39.96;94281.63;4967443;28;7177;-61
2023/03/15 08:10:00;;;;;;;;;;;;;;;26.08;40.09;94276.63;4976678;28;7317;-60
2023/03/15 08:12:27;;;;;;;;;;;;;;;26.07;39.76;94280.63;4975651;28;7103;-61
2023/03/15 08:14:56;;;;;;;;;;;;;;;26.05;39.65;94282.41;4991423;28;8719;-61
2023/03/15 08:17:22;;;;;;;;;;;;;;;26.04;39.71;94276.16;4990975;28;7053;-61
2023/03/15 08:19:51;;;;;;;;;;;;;;;26.07;39.74;94282.66;4970696;28;8600;-61
2023/03/15 08:22:23;;;;;;;;;;;;;;;26.05;39.96;94283.16;4988524;28;7362;-61
2023/03/15 08:24:56;;;;;;;;;;;;;;;26.11;39.78;94278.38;4972959;28;9020;-62
2023/03/15 08:27:27;;;;;;;;;;;;;;;26.16;40.01;94279.56;4992711;28;7103;-62
2023/03/15 08:29:54;;;;;;;;;;;;;;;26.19;39.47;94278.53;4966786;28;7136;-61
2023/03/15 08:32:24;;;;;;;;;;;;;;;26.24;39.95;94285.25;4958120;28;7208;-61
2023/03/15 08:34:51;;;;;;;;;;;;;;;26.28;39.57;94280.19;4968312;28;7309;-61
2023/03/15 08:37:20;;;;;;;;;;;;;;;26.31;40.48;94290.19;4956069;28;9028;-61
2023/03/15 08:39:46;;;;;;;;;;;;;;;26.32;40.45;94286.19;4968162;28;8983;-61
2023/03/15 08:42:14;;;;;;;;;;;;;;;26.32;39.85;94281.38;4958159;28;8093;-61
2023/03/15 08:44:40;;;;;;;;;;;;;;;26.28;39.50;94280.19;4972275;28;7207;-61
2023/03/15 08:47:07;;;;;;;;;;;;;;;26.30;39.93;94288.69;4954071;28;7308;-61
2023/03/15 08:49:39;;;;;;;;;;;;;;;26.29;39.13;94284.44;4972406;28;7899;-61
2023/03/15 08:52:17;;;;;;;;;;;;;;;26.28;39.24;94280.19;4968552;28;8471;-61
2023/03/15 08:54:43;;;;;;;;;;;;;;;26.25;38.88;94273.72;4963695;28;7192;-61
2023/03/15 08:57:18;;;;;;;;;;;;;;;26.26;39.20;94277.19;4954774;28;7234;-61
2023/03/15 08:59:46;;;;;;;;;;;;;;;26.24;39.41;94274.97;4960067;28;9309;-62
2023/03/15 09:02:13;;;;;;;;;;;;;;;26.25;39.48;94282.00;4993667;28;7025;-62
2023/03/15 09:04:51;;;;;;;;;;;;;;;26.23;39.11;94275.50;4964003;28;7405;-61
2023/03/15 09:07:41;;;;;;;;;;;;;;;26.22;39.96;94282.25;4980073;28;7281;-61
2023/03/15 09:10:12;;;;;;;;;;;;;;;26.21;39.65;94278.75;4968124;28;9022;-61
2023/03/15 09:12:38;;;;;;;;;;;;;;;26.19;39.79;94283.31;4965866;28;7054;-61
2023/03/15 09:15:20;;;;;;;;;;;;;;;26.17;39.43;94281.81;4975379;28;9520;-61
2023/03/15 09:18:13;;;;;;;;;;;;;;;26.19;39.07;94294.34;4965633;28;8744;-62
2023/03/15 09:21:09;;;;;;;;;;;;;;;26.16;39.85;94291.31;4970802;28;8523;-61
2023/03/15 09:24:12;;;;;;;;;;;;;;;26.15;39.19;94289.84;4874194;29;9023;-62
2023/03/15 09:26:39;;;;;;;;;;;;;;;26.16;40.10;94290.59;4842946;29;8789;-62
2023/03/15 09:29:08;;;;;;;;;;;;;;;26.15;39.61;94297.38;4850054;29;9194;-62
2023/03/15 09:31:42;;;;;;;;;;;;;;;26.14;39.26;94288.34;4843605;29;7563;-62
2023/03/15 09:34:12;;;;;;;;;;;;;;;26.13;39.53;94300.66;4845589;29;7452;-61
2023/03/15 09:36:38;;;;;;;;;;;;;;;26.11;39.84;94299.66;4853296;29;7560;-62
2023/03/15 09:39:04;;;;;;;;;;;;;;;26.15;39.24;94311.91;4845955;29;6977;-62
2023/03/15 09:41:38;;;;;;;;;;;;;;;26.19;39.58;94311.59;4868584;29;7275;-62
2023/03/15 09:44:19;;;;;;;;;;;;;;;26.18;39.95;94307.38;4851253;29;8825;-61
2023/03/15 09:47:00;;;;;;;;;;;;;;;26.16;39.93;94310.63;4848312;29;8977;-62
2023/03/15 09:49:40;;;;;;;;;;;;;;;26.24;39.58;94312.81;4855426;29;9740;-62
2023/03/15 09:52:18;;;;;;;;;;;;;;;26.26;39.19;94315.81;4849941;29;7062;-62
2023/03/15 09:55:16;;;;;;;;;;;;;;;26.31;39.71;94312.25;4846105;29;7074;-61
2023/03/15 09:58:02;;;;;;;;;;;;;;;26.34;39.81;94316.75;4838291;29;9182;-61
2023/03/15 10:00:44;;;;;;;;;;;;;;;26.38;38.63;94326.19;4914718;28;7269;-61
2023/03/15 10:03:34;;;;;;;;;;;;;;;26.39;38.77;94318.66;5001615;28;7286;-61
2023/03/15 10:06:11;;;;;;;;;;;;;;;26.37;39.26;94323.97;4968835;28;9279;-61
2023/03/15 10:08:37;;;;;;;;;;;;;;;26.37;39.26;94323.97;4967247;28;7054;-61
2023/03/15 10:11:45;;;;;;;;;;;;;;;26.37;38.55;94332.22;4983250;28;7282;-61
2023/03/15 10:14:56;;;;;;;;;;;;;;;26.34;39.22;94328.50;4972056;28;9048;-61
2023/03/15 10:17:53;;;;;;;;;;;;;;;26.36;38.92;94328.00;4986116;28;7323;-61
2023/03/15 10:20:28;;;;;;;;;;;;;;;26.37;39.14;94332.22;4985939;28;7290;-61
2023/03/15 10:23:22;;;;;;;;;;;;;;;26.37;38.59;94321.97;4968088;28;7044;-61
2023/03/15 10:25:50;;;;;;;;;;;;;;;26.35;38.84;94321.72;4972028;28;7244;-61
2023/03/15 10:28:26;;;;;;;;;;;;;;;26.39;38.63;94324.19;4987865;28;9319;-61
2023/03/15 10:30:56;;;;;;;;;;;;;;;26.36;39.18;94314.22;4982587;28;7254;-61
2023/03/15 10:33:31;;;;;;;;;;;;;;;26.33;38.55;94316.00;4973207;28;9208;-61
2023/03/15 10:36:01;;;;;;;;;;;;;;;26.33;39.27;94318.75;4970356;28;8033;-61
2023/03/15 10:38:28;;;;;;;;;;;;;;;26.32;38.70;94319.28;4973821;28;7046;-62
2023/03/15 10:40:57;;;;;;;;;;;;;;;26.32;38.84;94316.50;4999990;28;8724;-62
2023/03/15 10:43:38;;;;;;;;;;;;;;;26.31;39.42;94312.25;4974075;28;9131;-62
2023/03/15 10:46:05;;;;;;;;;;;;;;;26.30;38.94;94305.22;4989969;28;9299;-62
2023/03/15 10:49:07;;;;;;;;;;;;;;;26.30;39.08;94313.50;5006782;28;9030;-61
2023/03/15 10:51:51;;;;;;;;;;;;;;;26.30;39.46;94311.50;4991580;28;7004;-62
2023/03/15 10:54:40;;;;;;;;;;;;;;;26.31;39.78;94306.72;4966904;28;8755;-62
2023/03/15 10:57:59;;;;;;;;;;;;;;;26.31;39.99;94313.00;4974656;28;7218;-62
2023/03/15 11:00:49;;;;;;;;;;;;;;;26.32;39.62;94308.25;4912804;29;7047;-62
2023/03/15 11:03:27;;;;;;;;;;;;;;;26.32;39.85;94306.22;4931571;29;7183;-62
2023/03/15 11:05:56;;;;;;;;;;;;;;;26.37;39.42;94310.16;4905639;29;9082;-62
2023/03/15 11:08:40;;;;;;;;;;;;;;;26.34;39.51;94306.44;4931161;29;9372;-63
2023/03/15 11:11:09;;;;;;;;;;;;;;;26.38;39.11;94309.66;4926508;29;7039;-63
2023/03/15 11:14:05;;;;;;;;;;;;;;;26.40;39.24;94298.13;4920329;29;8724;-62
2023/03/15 11:16:37;;;;;;;;;;;;;;;26.43;39.06;94310.84;4888005;29;7572;-62
2023/03/15 11:19:14;;;;;;;;;;;;;;;26.41;39.40;94296.84;4888068;29;7209;-62
2023/03/15 11:21:44;;;;;;;;;;;;;;;26.39;40.11;94291.09;4876247;29;7651;-62
2023/03/15 11:24:25;;;;;;;;;;;;;;;26.39;39.59;94300.13;4892264;29;9027;-62
2023/03/15 11:27:08;;;;;;;;;;;;;;;26.38;39.33;94287.59;4885139;29;7264;-63
2023/03/15 11:29:53;;;;;;;;;;;;;;;26.42;39.78;94287.31;4891900;29;7035;-64
2023/03/15 11:32:27;;;;;;;;;;;;;;;26.48;39.70;94290.75;4884536;29;7259;-63
2023/03/15 11:35:14;;;;;;;;;;;;;;;26.51;39.06;94287.69;4894893;29;9111;-63
2023/03/15 11:38:11;;;;;;;;;;;;;;;26.53;39.49;94284.44;4912032;29;8235;-63
2023/03/15 11:40:55;;;;;;;;;;;;;;;26.54;39.25;94280.38;4892225;29;8762;-63
2023/03/15 11:43:55;;;;;;;;;;;;;;;26.59;38.93;94282.34;4898538;29;7431;-63
2023/03/15 11:46:38;;;;;;;;;;;;;;;26.61;39.25;94283.31;4898446;29;7394;-62
2023/03/15 11:49:17;;;;;;;;;;;;;;;26.61;39.66;94283.31;4899903;29;9052;-63
2023/03/15 11:51:44;;;;;;;;;;;;;;;26.64;38.96;94278.78;4915154;29;9667;-63
2023/03/15 11:54:28;;;;;;;;;;;;;;;26.67;38.92;94272.22;4971285;28;7124;-63
2023/03/15 11:57:05;;;;;;;;;;;;;;;26.66;39.01;94277.00;4973228;28;7051;-63
2023/03/15 11:59:51;;;;;;;;;;;;;;;26.69;38.51;94264.91;5003690;28;8868;-63
2023/03/15 12:02:18;;;;;;;;;;;;;;;26.71;38.71;94265.13;4965659;28;7034;-63
2023/03/15 12:04:53;;;;;;;;;;;;;;;26.73;38.97;94262.63;4975894;28;9139;-63
2023/03/15 12:07:27;;;;;;;;;;;;;;;26.75;38.65;94259.34;4970046;28;7602;-63
2023/03/15 12:09:55;;;;;;;;;;;;;;;26.74;38.87;94255.09;4992410;28;9361;-63
2023/03/15 12:12:37;;;;;;;;;;;;;;;26.76;39.00;94253.31;4999402;28;7365;-63
2023/03/15 12:15:22;;;;;;;;;;;;;;;26.78;39.41;94263.81;4969277;28;9030;-63
2023/03/15 12:18:16;;;;;;;;;;;;;;;26.78;38.94;94256.28;4973462;28;9050;-63
2023/03/15 12:21:14;;;;;;;;;;;;;;;26.78;39.23;94245.25;4969519;28;7644;-63
2023/03/15 12:23:48;;;;;;;;;;;;;;;26.80;38.77;94239.19;4987318;28;9661;-62
2023/03/15 12:26:41;;;;;;;;;;;;;;;26.80;38.86;94231.69;5001433;28;7262;-62
2023/03/15 12:29:31;;;;;;;;;;;;;;;26.80;38.48;94239.19;4963567;28;7340;-63
2023/03/15 12:32:01;;;;;;;;;;;;;;;26.82;38.58;94242.94;4969712;28;7286;-61
2023/03/15 12:35:07;;;;;;;;;;;;;;;26.80;38.68;94234.44;4989297;28;9050;-62
2023/03/15 12:37:45;;;;;;;;;;;;;;;26.82;38.51;94247.69;4965838;28;9080;-61
2023/03/15 12:40:17;;;;;;;;;;;;;;;26.84;38.88;94253.44;4985589;28;7030;-62
2023/03/15 12:42:43;;;;;;;;;;;;;;;26.86;38.87;94239.91;4978626;28;7063;-61
2023/03/15 12:45:18;;;;;;;;;;;;;;;26.87;38.64;94241.38;4980970;28;7807;-62
2023/03/15 12:47:57;;;;;;;;;;;;;;;26.89;38.73;94236.06;4971095;28;7269;-62
2023/03/15 12:50:43;;;;;;;;;;;;;;;26.90;38.24;94237.56;4971856;28;7200;-62
2023/03/15 12:53:24;;;;;;;;;;;;;;;26.90;38.53;94240.34;4984562;28;7299;-63
2023/03/15 12:56:17;;;;;;;;;;;;;;;26.88;38.78;94237.34;4980241;28;9397;-63
2023/03/15 12:58:52;;;;;;;;;;;;;;;26.91;38.17;94244.56;4972771;28;9578;-63
2023/03/15 13:01:24;;;;;;;;;;;;;;;26.86;38.65;94245.41;4961143;28;9117;-63
2023/03/15 13:03:57;;;;;;;;;;;;;;;26.85;38.72;94239.16;4973221;28;9917;-63
2023/03/15 13:06:56;;;;;;;;;;;;;;;26.91;38.76;94241.81;4972191;28;7918;-63
2023/03/15 13:10:20;;;;;;;;;;;;;;;26.87;38.92;94249.66;4971688;28;7272;-62
2023/03/15 13:13:17;;;;;;;;;;;;;;;26.90;38.63;94246.59;4882461;29;8714;-63
2023/03/15 13:15:58;;;;;;;;;;;;;;;26.91;38.80;94247.34;4885394;29;7253;-63
2023/03/15 13:18:33;;;;;;;;;;;;;;;26.89;38.34;94239.59;4891566;29;6991;-63
2023/03/15 13:21:17;;;;;;;;;;;;;;;26.91;38.56;94236.28;4891347;29;7284;-63
2023/03/15 13:23:50;;;;;;;;;;;;;;;26.93;38.45;94231.00;4876579;29;7293;-63
2023/03/15 13:26:24;;;;;;;;;;;;;;;26.99;38.52;94230.94;4887875;29;8978;-62
2023/03/15 13:29:00;;;;;;;;;;;;;;;26.99;38.38;94233.69;4877289;29;7298;-63
2023/03/15 13:31:29;;;;;;;;;;;;;;;27.01;39.19;94231.16;4881935;29;7566;-63
2023/03/15 13:34:20;;;;;;;;;;;;;;;27.00;38.90;94233.16;4881557;29;9158;-62
2023/03/15 13:36:56;;;;;;;;;;;;;;;26.99;38.88;94226.13;4887638;29;7358;-62
2023/03/15 13:39:25;;;;;;;;;;;;;;;27.00;38.94;94229.66;4876696;29;7049;-63
2023/03/15 13:42:16;;;;;;;;;;;;;;;26.97;38.83;94228.69;4876181;29;9393;-62
2023/03/15 13:44:42;;;;;;;;;;;;;;;26.99;38.98;94239.22;4891086;29;9091;-63